Time;durP1;ratioP1;P1;durP2;ratioP2;P2;SDS_P1;SDS_P2;PMS_P1;PMS_P2;Temp;Humidity;BMP_temperature;BMP_pressure;BME280_temperature;BME280_humidity;BME280_pressure;Samples;Min_cycle;Max_cycle;Signal;HPM_P1;HPM_P2
2023/03/26 00:01:45;;;;;;;3.10;1.73;;;9.30;57.70;;;;;;5072475;28;20586;-70
2023/03/26 00:04:18;;;;;;;2.10;0.88;;;9.30;57.90;;;;;;5072700;28;20243;-70
2023/03/26 00:06:47;;;;;;;5.15;2.00;;;9.30;58.10;;;;;;5071914;28;20247;-70
2023/03/26 00:09:16;;;;;;;2.25;1.02;;;9.40;58.00;;;;;;5072419;28;20324;-69
2023/03/26 00:11:45;;;;;;;2.10;1.00;;;9.40;57.90;;;;;;5072257;28;20214;-70
2023/03/26 00:14:17;;;;;;;3.65;1.45;;;9.40;57.90;;;;;;5071963;28;20192;-70
2023/03/26 00:16:48;;;;;;;3.72;1.27;;;9.40;58.20;;;;;;5072060;28;20182;-70
2023/03/26 00:19:17;;;;;;;4.53;1.60;;;9.40;58.10;;;;;;5072442;28;20263;-70
2023/03/26 00:21:45;;;;;;;4.20;1.80;;;9.50;58.20;;;;;;5071932;28;20200;-69
2023/03/26 00:24:15;;;;;;;3.40;1.20;;;9.50;58.30;;;;;;5072221;28;20280;-70
2023/03/26 00:26:52;;;;;;;6.03;1.77;;;9.60;58.10;;;;;;5072025;28;20186;-70
2023/03/26 00:29:19;;;;;;;3.85;1.73;;;9.60;58.30;;;;;;5071758;28;20228;-72
2023/03/26 00:31:51;;;;;;;6.50;2.00;;;9.70;58.50;;;;;;5071896;28;20196;-69
2023/03/26 00:34:21;;;;;;;4.25;2.22;;;9.70;58.50;;;;;;5072219;28;20185;-74
2023/03/26 00:36:53;;;;;;;4.25;1.70;;;9.70;58.60;;;;;;5052063;28;20699;-70
2023/03/26 00:39:24;;;;;;;9.68;2.05;;;9.80;58.30;;;;;;5052132;28;20273;-69
2023/03/26 00:41:53;;;;;;;4.05;1.33;;;9.90;58.10;;;;;;5052302;28;20202;-71
2023/03/26 00:44:21;;;;;;;6.40;1.50;;;9.90;58.00;;;;;;5052185;28;20281;-70
2023/03/26 00:46:48;;;;;;;3.03;0.95;;;9.90;58.10;;;;;;5052528;28;20224;-69
2023/03/26 00:49:19;;;;;;;4.72;1.58;;;9.90;58.20;;;;;;5051939;28;20221;-72
2023/03/26 00:51:51;;;;;;;3.75;1.17;;;10.00;57.60;;;;;;5071572;28;20190;-69
2023/03/26 00:54:19;;;;;;;3.95;1.23;;;10.00;57.60;;;;;;5071962;28;20280;-70
2023/03/26 00:56:46;;;;;;;3.80;1.65;;;10.00;57.70;;;;;;5071584;28;20212;-70
2023/03/26 00:59:14;;;;;;;2.72;1.35;;;10.00;57.70;;;;;;5071985;28;20231;-69
2023/03/26 01:01:43;;;;;;;2.38;1.17;;;10.00;57.70;;;;;;5070095;28;20699;-70
2023/03/26 01:04:29;;;;;;;3.75;1.23;;;10.10;57.80;;;;;;5071572;28;20182;-70
2023/03/26 01:06:58;;;;;;;2.28;1.10;;;10.10;57.80;;;;;;5071708;28;20711;-70
2023/03/26 01:09:31;;;;;;;5.35;2.28;;;10.10;57.80;;;;;;5071117;28;20252;-70
2023/03/26 01:12:00;;;;;;;2.40;1.20;;;10.10;58.00;;;;;;5075887;28;20198;-69
2023/03/26 01:14:29;;;;;;;2.30;1.08;;;10.10;58.00;;;;;;5075366;28;20644;-70
2023/03/26 01:16:58;;;;;;;4.75;1.10;;;10.10;58.00;;;;;;5075575;28;20193;-70
2023/03/26 01:19:32;;;;;;;5.55;1.48;;;10.10;57.90;;;;;;5074917;28;20579;-70
2023/03/26 01:22:00;;;;;;;3.72;1.50;;;10.10;57.80;;;;;;5075361;28;20580;-70
2023/03/26 01:24:29;;;;;;;3.45;1.35;;;10.10;57.80;;;;;;5074850;28;20190;-70
2023/03/26 01:27:18;;;;;;;4.25;1.77;;;10.10;58.00;;;;;;5074849;28;20537;-71
2023/03/26 01:29:54;;;;;;;4.68;1.23;;;10.10;58.00;;;;;;5075385;28;20261;-69
2023/03/26 01:33:00;;;;;;;5.55;1.20;;;10.10;58.10;;;;;;5075205;28;20227;-70
2023/03/26 01:35:38;;;;;;;3.40;1.40;;;10.10;58.00;;;;;;5071865;28;20198;-70
2023/03/26 01:38:14;;;;;;;7.68;1.35;;;10.10;58.00;;;;;;5074842;28;20190;-69
2023/03/26 01:40:48;;;;;;;5.63;1.75;;;10.10;58.00;;;;;;5075031;28;20189;-70
2023/03/26 01:43:27;;;;;;;4.25;1.55;;;10.10;58.10;;;;;;5074616;28;20581;-70
2023/03/26 01:45:58;;;;;;;4.93;2.15;;;10.10;58.00;;;;;;5075602;28;20647;-70
2023/03/26 01:48:35;;;;;;;2.67;1.40;;;10.10;58.00;;;;;;5074359;28;20274;-70
2023/03/26 01:51:06;;;;;;;5.45;1.30;;;10.10;58.10;;;;;;5075394;28;20233;-70
2023/03/26 01:53:36;;;;;;;4.07;1.30;;;10.10;58.10;;;;;;5075094;28;20181;-71
2023/03/26 01:56:14;;;;;;;6.55;2.17;;;10.10;58.20;;;;;;5074952;28;20544;-76
2023/03/26 01:59:03;;;;;;;4.93;1.35;;;10.10;58.10;;;;;;5074788;28;20644;-70
2023/03/26 02:01:36;;;;;;;5.90;1.58;;;10.10;58.30;;;;;;5075001;28;20190;-70
2023/03/26 02:04:11;;;;;;;6.07;1.48;;;10.10;58.40;;;;;;5074366;28;20197;-69
2023/03/26 02:06:44;;;;;;;6.65;2.22;;;10.10;58.30;;;;;;5054897;28;20555;-69
2023/03/26 02:09:18;;;;;;;2.25;1.30;;;10.10;58.20;;;;;;5070539;28;20296;-70
2023/03/26 02:11:48;;;;;;;3.92;1.25;;;10.10;58.90;;;;;;5074824;28;20189;-70
2023/03/26 02:14:16;;;;;;;4.88;1.60;;;10.10;58.50;;;;;;5074512;28;20217;-70
2023/03/26 02:16:50;;;;;;;3.75;1.35;;;10.10;58.70;;;;;;5074761;28;20277;-70
2023/03/26 02:19:23;;;;;;;3.08;1.65;;;10.10;59.00;;;;;;5073926;28;20273;-69
2023/03/26 02:21:51;;;;;;;5.45;1.90;;;10.00;59.00;;;;;;5073168;28;20194;-70
2023/03/26 02:24:18;;;;;;;5.30;1.55;;;10.10;59.00;;;;;;5074297;28;20272;-71
2023/03/26 02:26:48;;;;;;;7.32;1.77;;;10.00;59.00;;;;;;5073885;28;20196;-70
2023/03/26 02:29:19;;;;;;;3.25;1.27;;;10.00;59.00;;;;;;5074139;28;20247;-70
2023/03/26 02:31:47;;;;;;;4.07;1.80;;;10.00;59.20;;;;;;5073418;28;20547;-69
2023/03/26 02:34:18;;;;;;;4.50;1.90;;;9.90;60.40;;;;;;5074202;28;20308;-70
2023/03/26 02:36:45;;;;;;;4.03;1.83;;;10.00;59.60;;;;;;5074027;28;20645;-70
2023/03/26 02:39:14;;;;;;;4.72;1.83;;;9.90;60.30;;;;;;5074184;28;20204;-70
2023/03/26 02:41:42;;;;;;;3.97;1.23;;;10.00;59.30;;;;;;5073188;28;20239;-69
2023/03/26 02:44:11;;;;;;;4.63;1.40;;;10.00;59.00;;;;;;5073904;28;20189;-69
2023/03/26 02:46:38;;;;;;;4.50;1.13;;;10.00;59.40;;;;;;5073515;28;20193;-70
2023/03/26 02:49:09;;;;;;;5.15;1.48;;;9.90;60.90;;;;;;5073920;28;20193;-72
2023/03/26 02:51:38;;;;;;;3.78;1.67;;;9.90;60.70;;;;;;5073634;28;20181;-70
2023/03/26 02:54:06;;;;;;;6.93;2.28;;;9.90;60.40;;;;;;5073597;28;20194;-70
2023/03/26 02:56:36;;;;;;;4.80;1.40;;;9.90;60.50;;;;;;5073461;28;20662;-69
2023/03/26 02:59:04;;;;;;;3.38;1.10;;;9.90;61.80;;;;;;5073604;28;20196;-69
2023/03/26 03:01:35;;;;;;;3.58;1.65;;;9.90;61.60;;;;;;5074224;28;20201;-69
2023/03/26 03:04:04;;;;;;;5.63;1.30;;;9.90;62.10;;;;;;5073622;28;20197;-70
2023/03/26 03:06:33;;;;;;;4.80;2.17;;;9.80;62.50;;;;;;5073439;28;20221;-70
2023/03/26 03:09:01;;;;;;;4.35;1.77;;;9.80;63.30;;;;;;5073526;28;20699;-70
2023/03/26 03:11:30;;;;;;;4.82;1.50;;;9.80;63.90;;;;;;5072859;28;20707;-70
2023/03/26 03:14:00;;;;;;;5.65;1.40;;;9.80;63.80;;;;;;5073523;28;20595;-70
2023/03/26 03:16:28;;;;;;;3.17;1.40;;;9.80;64.20;;;;;;5073328;28;20186;-70
2023/03/26 03:18:57;;;;;;;4.57;1.33;;;9.80;64.50;;;;;;5073333;28;20248;-70
2023/03/26 03:21:26;;;;;;;3.25;1.65;;;9.70;65.00;;;;;;5073328;28;20231;-70
2023/03/26 03:23:54;;;;;;;3.97;1.23;;;9.70;65.60;;;;;;5073296;28;20200;-70
2023/03/26 03:26:28;;;;;;;5.25;1.05;;;9.70;65.90;;;;;;5073304;28;20186;-70
2023/03/26 03:28:58;;;;;;;4.03;1.25;;;9.60;66.50;;;;;;5073168;28;20298;-70
2023/03/26 03:31:27;;;;;;;8.27;1.92;;;9.60;67.40;;;;;;5072603;28;20216;-70
2023/03/26 03:33:56;;;;;;;5.68;1.67;;;9.60;67.90;;;;;;5072992;28;20197;-70
2023/03/26 03:36:29;;;;;;;4.60;1.38;;;9.60;68.40;;;;;;5072312;28;20197;-70
2023/03/26 03:39:01;;;;;;;4.72;2.40;;;9.60;68.40;;;;;;5072749;28;20248;-70
2023/03/26 03:41:28;;;;;;;3.10;1.17;;;9.50;68.40;;;;;;5072677;28;20699;-70
2023/03/26 03:43:58;;;;;;;2.25;1.10;;;9.50;69.20;;;;;;5072738;28;20193;-70
2023/03/26 03:46:26;;;;;;;4.25;1.30;;;9.40;69.20;;;;;;5070892;28;20192;-70
2023/03/26 03:48:58;;;;;;;4.45;1.70;;;9.40;69.10;;;;;;5052566;28;20190;-71
2023/03/26 03:51:34;;;;;;;7.30;1.55;;;9.40;69.20;;;;;;5052695;28;20218;-70
2023/03/26 03:54:03;;;;;;;3.75;1.70;;;9.40;69.20;;;;;;5069581;28;20185;-70
2023/03/26 03:56:31;;;;;;;8.70;1.70;;;9.40;68.60;;;;;;5072873;28;20198;-70
2023/03/26 03:59:00;;;;;;;8.35;1.50;;;9.40;66.50;;;;;;5071847;28;20228;-69
2023/03/26 04:01:30;;;;;;;2.90;1.33;;;9.50;65.40;;;;;;5071910;28;20612;-70
2023/03/26 04:03:58;;;;;;;6.03;1.45;;;9.50;66.10;;;;;;5072519;28;20204;-70
2023/03/26 04:06:29;;;;;;;5.70;1.30;;;9.50;66.10;;;;;;5072289;28;20644;-70
2023/03/26 04:08:57;;;;;;;3.78;1.10;;;9.50;66.20;;;;;;5071822;28;20579;-70
2023/03/26 04:11:27;;;;;;;2.50;1.10;;;9.50;66.40;;;;;;5072203;28;20232;-70
2023/03/26 04:13:54;;;;;;;4.22;1.50;;;9.50;66.20;;;;;;5072578;28;20197;-70
2023/03/26 04:16:21;;;;;;;5.07;1.85;;;9.60;65.70;;;;;;5071901;28;20190;-70
2023/03/26 04:18:49;;;;;;;6.43;1.63;;;9.50;65.00;;;;;;5072465;28;20254;-70
2023/03/26 04:21:18;;;;;;;6.18;2.25;;;9.50;64.50;;;;;;5072192;28;20235;-69
2023/03/26 04:23:46;;;;;;;6.47;1.60;;;9.50;64.80;;;;;;5072553;28;20186;-69
2023/03/26 04:26:18;;;;;;;3.75;1.45;;;9.50;65.20;;;;;;5071879;28;20189;-70
2023/03/26 04:28:52;;;;;;;3.20;1.58;;;9.50;65.40;;;;;;5072446;28;20190;-70
2023/03/26 04:31:22;;;;;;;5.10;2.03;;;9.50;65.80;;;;;;5071990;28;20370;-70
2023/03/26 04:33:53;;;;;;;4.47;1.48;;;9.40;66.30;;;;;;5071864;28;20224;-70
2023/03/26 04:36:27;;;;;;;4.15;1.50;;;9.40;66.60;;;;;;5072155;28;20229;-70
2023/03/26 04:39:03;;;;;;;3.70;1.42;;;9.40;66.50;;;;;;5071950;28;20193;-70
2023/03/26 04:41:32;;;;;;;3.92;1.15;;;9.50;66.80;;;;;;5071861;28;20217;-68
2023/03/26 04:44:00;;;;;;;5.10;1.45;;;9.50;66.50;;;;;;5072498;28;20253;-68
2023/03/26 04:46:32;;;;;;;5.43;1.80;;;9.50;66.40;;;;;;5075129;28;20193;-73
2023/03/26 04:49:00;;;;;;;4.85;1.50;;;9.50;66.70;;;;;;5076477;28;20194;-68
2023/03/26 04:51:38;;;;;;;5.03;2.28;;;9.60;66.90;;;;;;5075694;28;20224;-68
2023/03/26 04:54:07;;;;;;;12.85;2.65;;;9.60;66.70;;;;;;5076413;28;20189;-68
2023/03/26 04:56:43;;;;;;;2.80;1.48;;;9.60;66.90;;;;;;5075788;28;20185;-68
2023/03/26 04:59:14;;;;;;;6.80;2.38;;;9.60;66.90;;;;;;5076178;28;20247;-68
2023/03/26 05:01:44;;;;;;;4.32;1.20;;;9.60;67.20;;;;;;5075648;28;20211;-68
2023/03/26 05:04:12;;;;;;;7.03;1.27;;;9.60;67.60;;;;;;5075805;28;20189;-68
2023/03/26 05:06:42;;;;;;;8.20;1.70;;;9.60;67.70;;;;;;5058609;28;20224;-68
2023/03/26 05:09:10;;;;;;;3.30;1.52;;;9.60;67.90;;;;;;5076008;28;20220;-68
2023/03/26 05:11:39;;;;;;;2.67;1.55;;;9.60;68.30;;;;;;5075241;28;20300;-69
2023/03/26 05:14:08;;;;;;;3.95;1.52;;;9.70;68.50;;;;;;5075899;28;20190;-68
2023/03/26 05:16:40;;;;;;;4.10;1.50;;;9.60;68.20;;;;;;5075222;28;20555;-70
2023/03/26 05:19:12;;;;;;;5.85;1.73;;;9.70;68.40;;;;;;5075809;28;20184;-69
2023/03/26 05:21:40;;;;;;;4.82;2.22;;;9.60;69.50;;;;;;5075386;28;20660;-68
2023/03/26 05:24:07;;;;;;;7.30;1.38;;;9.60;70.20;;;;;;5075397;28;20676;-68
2023/03/26 05:26:35;;;;;;;2.40;1.33;;;9.60;70.10;;;;;;5075128;28;20221;-68
2023/03/26 05:29:04;;;;;;;8.90;5.07;;;9.60;70.00;;;;;;5075842;28;20615;-68
2023/03/26 05:31:35;;;;;;;4.85;1.88;;;9.60;70.70;;;;;;5074741;28;20248;-68
2023/03/26 05:34:02;;;;;;;5.57;1.80;;;9.60;70.80;;;;;;5075478;28;20185;-68
2023/03/26 05:36:30;;;;;;;2.15;1.10;;;9.60;70.60;;;;;;5075070;28;20216;-68
2023/03/26 05:38:58;;;;;;;4.28;1.20;;;9.60;70.80;;;;;;5075269;28;20285;-68
2023/03/26 05:41:25;;;;;;;3.70;1.30;;;9.50;70.70;;;;;;5074823;28;20269;-68
2023/03/26 05:43:53;;;;;;;2.67;1.20;;;9.50;70.90;;;;;;5075446;28;20193;-68
2023/03/26 05:46:22;;;;;;;4.35;1.33;;;9.40;70.90;;;;;;5074602;28;20186;-71
2023/03/26 05:48:50;;;;;;;2.65;1.10;;;9.40;71.00;;;;;;5055267;28;20194;-68
2023/03/26 05:51:23;;;;;;;3.70;1.48;;;9.40;71.60;;;;;;5069217;28;20272;-69
2023/03/26 05:53:50;;;;;;;3.95;1.40;;;9.30;72.10;;;;;;5074985;28;20276;-70
2023/03/26 05:56:18;;;;;;;2.42;1.00;;;9.30;72.10;;;;;;5074316;28;20186;-68
2023/03/26 05:58:46;;;;;;;1.95;0.90;;;9.30;72.90;;;;;;5075242;28;20190;-69
2023/03/26 06:01:19;;;;;;;2.05;0.80;;;9.20;73.50;;;;;;5074717;28;20197;-68
2023/03/26 06:03:50;;;;;;;1.85;0.90;;;9.10;73.90;;;;;;5074470;28;20193;-68
2023/03/26 06:06:20;;;;;;;2.92;1.20;;;9.20;74.50;;;;;;5074483;28;20196;-68
2023/03/26 06:08:50;;;;;;;3.28;1.17;;;9.20;74.50;;;;;;5074497;28;20236;-68
2023/03/26 06:11:23;;;;;;;3.80;1.85;;;9.20;74.60;;;;;;5075010;28;20221;-68
2023/03/26 06:13:51;;;;;;;2.50;1.40;;;9.20;75.30;;;;;;5074311;28;20200;-69
2023/03/26 06:16:18;;;;;;;3.38;1.50;;;9.20;75.70;;;;;;5074640;28;20193;-68
2023/03/26 06:18:50;;;;;;;2.25;1.13;;;9.20;76.40;;;;;;5073965;28;20186;-68
2023/03/26 06:21:18;;;;;;;2.08;1.30;;;9.20;76.80;;;;;;5074528;28;20251;-68
2023/03/26 06:23:47;;;;;;;5.55;1.50;;;9.20;76.80;;;;;;5073796;28;20231;-68
2023/03/26 06:26:15;;;;;;;3.33;1.50;;;9.30;76.80;;;;;;5074571;28;20201;-69
2023/03/26 06:28:44;;;;;;;5.15;1.90;;;9.30;77.30;;;;;;5074231;28;20667;-68
2023/03/26 06:31:17;;;;;;;5.22;1.92;;;9.30;77.80;;;;;;5074132;28;20217;-68
2023/03/26 06:33:45;;;;;;;3.60;1.67;;;9.30;78.10;;;;;;5073387;28;20189;-68
2023/03/26 06:36:14;;;;;;;2.90;1.45;;;9.40;77.90;;;;;;5074200;28;20190;-69
2023/03/26 06:38:43;;;;;;;3.47;2.08;;;9.40;79.40;;;;;;5073813;28;20316;-68
2023/03/26 06:41:13;;;;;;;2.75;1.40;;;9.40;79.30;;;;;;5074175;28;20194;-68
2023/03/26 06:43:41;;;;;;;3.42;1.30;;;9.40;79.00;;;;;;5073618;28;20189;-69
2023/03/26 06:46:10;;;;;;;2.67;1.40;;;9.40;79.60;;;;;;5074243;28;20193;-69
2023/03/26 06:48:39;;;;;;;3.70;1.02;;;9.40;80.10;;;;;;5074062;28;20189;-69
2023/03/26 06:51:07;;;;;;;6.35;1.70;;;9.50;80.00;;;;;;5073378;28;20765;-68
2023/03/26 06:53:36;;;;;;;3.85;1.35;;;9.50;80.00;;;;;;5073817;28;20190;-68
2023/03/26 06:56:05;;;;;;;3.10;1.00;;;9.60;80.20;;;;;;5073561;28;20640;-68
2023/03/26 06:58:33;;;;;;;5.25;2.40;;;9.60;80.20;;;;;;5073893;28;20193;-68
2023/03/26 07:01:01;;;;;;;8.02;3.13;;;9.60;78.80;;;;;;5073425;28;20269;-68
2023/03/26 07:03:30;;;;;;;2.40;1.63;;;9.70;79.60;;;;;;5073891;28;20197;-69
2023/03/26 07:05:57;;;;;;;4.80;2.30;;;9.70;80.40;;;;;;5073029;28;20196;-68
2023/03/26 07:08:25;;;;;;;3.55;2.50;;;9.80;81.10;;;;;;5072258;28;20217;-69
2023/03/26 07:10:59;;;;;;;4.13;1.98;;;9.80;81.80;;;;;;5073154;28;20293;-68
2023/03/26 07:13:27;;;;;;;4.88;2.40;;;9.90;81.60;;;;;;5073459;28;20189;-69
2023/03/26 07:15:54;;;;;;;3.92;2.13;;;10.00;79.80;;;;;;5072870;28;20233;-70
2023/03/26 07:18:27;;;;;;;3.63;1.70;;;10.10;79.90;;;;;;5073301;28;20186;-68
2023/03/26 07:20:55;;;;;;;2.15;1.42;;;10.20;80.50;;;;;;5073297;28;20193;-68
2023/03/26 07:23:22;;;;;;;3.58;2.40;;;10.20;80.40;;;;;;5069830;28;20198;-68
2023/03/26 07:25:52;;;;;;;4.43;2.60;;;10.30;80.10;;;;;;5071275;28;20213;-69
2023/03/26 07:28:29;;;;;;;5.07;2.20;;;10.30;79.60;;;;;;5070621;28;20194;-68
2023/03/26 07:31:11;;;;;;;3.75;1.63;;;10.40;79.20;;;;;;5070522;28;20189;-69
2023/03/26 07:33:46;;;;;;;2.70;1.30;;;10.50;78.80;;;;;;5070782;28;20225;-69
2023/03/26 07:36:23;;;;;;;2.65;1.40;;;10.50;78.10;;;;;;5067744;28;20309;-69
2023/03/26 07:39:05;;;;;;;2.63;1.17;;;10.50;78.10;;;;;;5070115;28;20192;-68
2023/03/26 07:41:41;;;;;;;2.67;1.65;;;10.50;78.10;;;;;;5071205;28;20200;-69
2023/03/26 07:44:46;;;;;;;3.30;1.45;;;10.60;78.00;;;;;;5071027;28;20591;-69
2023/03/26 07:47:24;;;;;;;2.65;1.30;;;10.60;78.10;;;;;;5050011;28;20225;-69
2023/03/26 07:49:54;;;;;;;3.05;1.63;;;10.60;78.10;;;;;;5067577;28;20190;-69
2023/03/26 07:52:22;;;;;;;3.10;1.70;;;10.70;78.50;;;;;;5066070;28;20221;-69
2023/03/26 07:54:50;;;;;;;6.13;1.60;;;10.70;79.00;;;;;;5065413;28;20200;-70
2023/03/26 07:57:29;;;;;;;3.60;1.60;;;10.70;79.00;;;;;;5066997;28;20193;-68
2023/03/26 08:00:01;;;;;;;4.78;2.13;;;10.80;79.20;;;;;;5068790;28;20701;-69
2023/03/26 08:03:04;;;;;;;2.67;1.60;;;10.80;78.90;;;;;;5065154;28;20252;-69
2023/03/26 08:05:39;;;;;;;6.40;1.98;;;10.80;78.50;;;;;;5046045;28;20209;-69
2023/03/26 08:08:16;;;;;;;6.28;1.80;;;10.80;77.90;;;;;;5059227;28;20996;-76
2023/03/26 08:10:57;;;;;;;4.68;1.83;;;10.80;77.30;;;;;;5060411;28;20197;-69
2023/03/26 08:13:34;;;;;;;2.65;1.40;;;10.80;77.40;;;;;;5068093;28;20610;-69
2023/03/26 08:16:11;;;;;;;5.60;2.05;;;10.80;77.00;;;;;;5068228;28;20213;-69
2023/03/26 08:18:48;;;;;;;3.33;1.70;;;10.90;77.20;;;;;;5067866;28;20208;-70
2023/03/26 08:21:24;;;;;;;4.35;1.75;;;10.90;76.70;;;;;;5063065;28;20668;-68
2023/03/26 08:24:06;;;;;;;4.63;1.38;;;11.00;76.80;;;;;;5063731;28;20188;-68
2023/03/26 08:26:40;;;;;;;4.20;1.27;;;11.00;75.00;;;;;;5068160;28;20204;-69
2023/03/26 08:29:17;;;;;;;4.82;1.90;;;11.00;74.60;;;;;;5064443;28;20201;-69
2023/03/26 08:31:49;;;;;;;3.58;1.60;;;11.00;75.10;;;;;;5065411;28;20221;-71
2023/03/26 08:34:16;;;;;;;7.25;1.60;;;11.00;76.10;;;;;;5067273;28;20190;-69
2023/03/26 08:36:48;;;;;;;4.55;2.05;;;11.10;76.60;;;;;;5066810;28;20564;-69
2023/03/26 08:39:15;;;;;;;2.50;1.40;;;11.10;77.50;;;;;;5067396;28;20548;-69
2023/03/26 08:42:10;;;;;;;3.70;1.52;;;11.10;77.70;;;;;;5064871;28;20627;-69
2023/03/26 08:45:08;;;;;;;3.88;1.70;;;11.20;77.60;;;;;;5067363;28;20284;-71
2023/03/26 08:48:18;;;;;;;3.65;1.90;;;11.20;77.90;;;;;;5067420;28;20202;-69
2023/03/26 08:51:45;;;;;;;3.53;2.35;;;11.20;77.90;;;;;;5067188;28;20197;-69
2023/03/26 08:54:36;;;;;;;4.25;1.67;;;11.20;77.00;;;;;;5067180;28;20252;-69
2023/03/26 08:57:30;;;;;;;3.85;2.63;;;11.30;76.40;;;;;;5065108;28;20706;-71
2023/03/26 09:00:23;;;;;;;4.25;2.05;;;11.20;75.40;;;;;;5065841;28;20272;-76
2023/03/26 09:03:17;;;;;;;6.00;2.50;;;11.30;75.30;;;;;;5066239;28;20650;-73
2023/03/26 09:06:13;;;;;;;6.53;3.05;;;11.20;76.00;;;;;;5062793;28;20284;-68
2023/03/26 09:09:21;;;;;;;3.17;1.88;;;11.20;76.50;;;;;;5067274;28;20628;-69
2023/03/26 09:12:26;;;;;;;3.80;2.42;;;11.10;76.10;;;;;;5065663;28;20286;-69
2023/03/26 09:15:38;;;;;;;3.53;2.30;;;11.00;75.50;;;;;;5065069;28;20663;-70
2023/03/26 09:18:45;;;;;;;5.10;1.90;;;10.90;77.30;;;;;;5066102;28;20202;-69
2023/03/26 09:21:59;;;;;;;6.03;2.40;;;10.80;77.90;;;;;;5066255;28;20216;-70
2023/03/26 09:25:11;;;;;;;3.08;1.52;;;10.80;77.50;;;;;;5066706;28;20233;-69
2023/03/26 09:27:48;;;;;;;4.30;2.80;;;10.70;78.60;;;;;;5044002;28;20194;-69
2023/03/26 09:30:43;;;;;;;3.95;2.25;;;10.60;79.90;;;;;;5062518;28;20200;-69
2023/03/26 09:33:39;;;;;;;6.15;3.88;;;10.60;80.20;;;;;;5069438;28;20244;-69
2023/03/26 09:36:29;;;;;;;8.13;2.70;;;10.60;80.90;;;;;;5070963;28;20197;-72
2023/03/26 09:39:09;;;;;;;4.38;2.50;;;10.60;82.00;;;;;;5069744;28;20197;-69
2023/03/26 09:41:42;;;;;;;4.70;2.03;;;10.70;81.30;;;;;;5066717;28;20193;-69
2023/03/26 09:44:49;;;;;;;5.95;2.85;;;10.70;79.80;;;;;;5071085;28;20189;-71
2023/03/26 09:47:45;;;;;;;9.13;3.60;;;10.60;80.60;;;;;;5069785;28;20239;-70
2023/03/26 09:50:35;;;;;;;4.70;2.85;;;10.60;80.70;;;;;;5024664;28;20373;-73
2023/03/26 09:53:32;;;;;;;4.57;2.75;;;10.70;80.70;;;;;;5042024;28;20487;-70
2023/03/26 09:56:11;;;;;;;4.07;2.47;;;10.70;81.10;;;;;;5058155;28;20731;-70
2023/03/26 09:59:07;;;;;;;4.47;2.25;;;10.70;82.50;;;;;;5068132;28;20331;-72
2023/03/26 10:01:55;;;;;;;6.82;2.50;;;10.70;82.60;;;;;;5063040;28;20197;-73
2023/03/26 10:04:59;;;;;;;4.70;2.10;;;10.60;82.00;;;;;;5048873;28;20582;-72
2023/03/26 10:07:45;;;;;;;5.68;2.10;;;10.60;82.10;;;;;;5057552;28;20225;-74
2023/03/26 10:10:26;;;;;;;7.00;2.10;;;10.50;83.80;;;;;;5052079;28;20226;-70
2023/03/26 10:12:58;;;;;;;2.78;2.05;;;10.40;84.50;;;;;;5066654;28;20224;-70
2023/03/26 10:15:36;;;;;;;5.68;1.98;;;10.40;85.20;;;;;;5068791;28;20641;-70
2023/03/26 10:18:14;;;;;;;5.20;2.10;;;10.40;83.40;;;;;;5066811;28;20190;-70
2023/03/26 10:20:56;;;;;;;3.40;2.33;;;10.40;84.30;;;;;;5066429;28;20571;-71
2023/03/26 10:23:55;;;;;;;5.25;2.40;;;10.40;84.20;;;;;;5067127;28;20185;-70
2023/03/26 10:27:03;;;;;;;5.88;5.28;;;10.40;85.20;;;;;;5068401;28;20190;-70
2023/03/26 10:29:54;;;;;;;3.55;3.15;;;10.40;86.10;;;;;;5062269;28;20205;-69
2023/03/26 10:32:31;;;;;;;2.90;1.90;;;10.50;84.20;;;;;;5067432;28;20253;-74
2023/03/26 10:35:10;;;;;;;3.50;1.67;;;10.60;83.80;;;;;;5065675;28;20204;-70
2023/03/26 10:37:53;;;;;;;3.30;1.90;;;10.60;82.90;;;;;;5065602;28;20201;-71
2023/03/26 10:40:25;;;;;;;3.00;1.50;;;10.70;82.40;;;;;;5060805;28;20192;-70
2023/03/26 10:43:19;;;;;;;3.05;1.70;;;10.60;80.50;;;;;;5068198;28;20259;-70
2023/03/26 10:46:35;;;;;;;4.05;1.75;;;10.60;82.30;;;;;;5068992;28;20190;-70
2023/03/26 10:49:30;;;;;;;4.22;1.50;;;10.60;83.30;;;;;;5062092;28;20290;-69
2023/03/26 10:51:59;;;;;;;3.00;1.50;;;10.90;83.50;;;;;;5066894;28;20326;-70
2023/03/26 10:54:39;;;;;;;7.10;1.70;;;11.40;83.40;;;;;;5068927;28;20201;-70
2023/03/26 10:57:22;;;;;;;4.75;1.83;;;11.90;81.30;;;;;;5067609;28;20201;-71
2023/03/26 10:59:51;;;;;;;3.53;1.60;;;12.20;77.20;;;;;;5060676;28;20296;-71
2023/03/26 11:02:29;;;;;;;4.38;2.38;;;12.20;73.70;;;;;;5067059;28;20235;-70
2023/03/26 11:05:27;;;;;;;5.68;2.83;;;12.10;73.70;;;;;;5068377;28;20189;-70
2023/03/26 11:08:15;;;;;;;2.53;1.40;;;12.00;74.50;;;;;;5062231;28;20279;-70
2023/03/26 11:10:53;;;;;;;3.65;1.40;;;12.00;74.90;;;;;;5070094;28;20648;-71
2023/03/26 11:13:29;;;;;;;4.55;2.17;;;12.00;75.50;;;;;;5070131;28;20300;-70
2023/03/26 11:16:01;;;;;;;3.30;2.03;;;12.10;74.60;;;;;;5067824;28;21083;-70
2023/03/26 11:18:39;;;;;;;2.75;1.30;;;12.20;75.80;;;;;;5070593;28;20197;-70
2023/03/26 11:21:13;;;;;;;2.70;1.23;;;12.20;74.50;;;;;;5069274;28;20619;-71
2023/03/26 11:23:48;;;;;;;4.05;1.27;;;12.10;73.60;;;;;;5066794;28;20554;-70
2023/03/26 11:26:18;;;;;;;2.38;1.48;;;12.10;72.90;;;;;;5070431;28;20204;-70
2023/03/26 11:29:14;;;;;;;2.45;1.25;;;11.90;75.50;;;;;;5070795;28;20275;-71
2023/03/26 11:31:52;;;;;;;3.45;1.52;;;12.00;77.40;;;;;;5073311;28;20193;-70
2023/03/26 11:34:27;;;;;;;2.00;0.77;;;12.20;76.70;;;;;;5073656;28;20193;-71
2023/03/26 11:36:57;;;;;;;2.60;1.75;;;12.60;72.80;;;;;;5073367;28;20619;-71
2023/03/26 11:39:26;;;;;;;2.38;1.38;;;13.00;74.30;;;;;;5073330;28;20329;-71
2023/03/26 11:42:03;;;;;;;2.05;1.00;;;13.50;74.10;;;;;;5073344;28;20232;-71
2023/03/26 11:44:36;;;;;;;3.10;1.00;;;14.10;70.10;;;;;;5073274;28;20225;-71
2023/03/26 11:47:08;;;;;;;2.13;0.83;;;14.60;64.40;;;;;;5072832;28;20438;-71
2023/03/26 11:49:38;;;;;;;1.97;1.00;;;14.60;60.10;;;;;;5072373;28;20430;-71
2023/03/26 11:52:06;;;;;;;1.80;0.70;;;14.40;61.40;;;;;;5073119;28;20475;-72
2023/03/26 11:54:33;;;;;;;1.57;0.63;;;14.20;61.40;;;;;;5073110;28;20444;-71
2023/03/26 11:57:04;;;;;;;1.90;1.03;;;13.90;59.30;;;;;;5072900;28;20971;-71
2023/03/26 11:59:35;;;;;;;2.47;1.35;;;13.70;58.60;;;;;;5072330;28;20910;-71
2023/03/26 12:02:23;;;;;;;2.35;0.85;;;13.50;58.40;;;;;;5072944;28;20194;-70
2023/03/26 12:05:02;;;;;;;1.83;1.03;;;13.40;59.80;;;;;;5072718;28;20194;-71
2023/03/26 12:07:32;;;;;;;2.05;0.88;;;13.30;59.30;;;;;;5072316;28;20513;-72
2023/03/26 12:10:00;;;;;;;2.00;0.80;;;13.20;60.20;;;;;;5073108;28;20602;-71
2023/03/26 12:12:31;;;;;;;1.80;0.70;;;13.20;61.10;;;;;;5072001;28;20217;-71
2023/03/26 12:14:58;;;;;;;1.80;0.90;;;13.10;60.30;;;;;;5072344;28;20447;-71
2023/03/26 12:17:31;;;;;;;1.73;0.87;;;13.00;62.50;;;;;;5072349;28;20715;-70
2023/03/26 12:20:00;;;;;;;1.77;0.80;;;12.90;60.60;;;;;;5072044;28;20460;-71
2023/03/26 12:22:29;;;;;;;1.80;0.80;;;12.80;61.10;;;;;;5072323;28;20284;-70
2023/03/26 12:25:14;;;;;;;7.10;0.90;;;12.70;61.40;;;;;;5072653;28;20225;-71
2023/03/26 12:27:44;;;;;;;2.70;1.20;;;12.60;61.20;;;;;;5072618;28;20658;-71
2023/03/26 12:30:19;;;;;;;2.05;1.05;;;12.40;62.60;;;;;;5072646;28;20330;-70
2023/03/26 12:32:48;;;;;;;2.75;1.05;;;12.40;62.30;;;;;;5072560;28;20694;-70
2023/03/26 12:35:19;;;;;;;2.28;1.00;;;12.20;61.30;;;;;;5072674;28;20235;-71
2023/03/26 12:37:47;;;;;;;1.70;0.82;;;12.00;61.30;;;;;;5072310;28;20288;-71
2023/03/26 12:40:39;;;;;;;3.47;1.30;;;12.00;62.30;;;;;;5072424;28;20229;-73
2023/03/26 12:43:21;;;;;;;2.05;1.30;;;11.90;63.20;;;;;;5052891;28;20236;-71
2023/03/26 12:45:51;;;;;;;3.17;1.33;;;11.90;63.30;;;;;;5072666;28;20586;-71
2023/03/26 12:48:18;;;;;;;1.80;1.10;;;11.90;62.70;;;;;;5072029;28;20190;-71
2023/03/26 12:51:00;;;;;;;2.33;1.27;;;11.90;60.70;;;;;;5072184;28;20229;-70
2023/03/26 12:53:39;;;;;;;2.75;1.30;;;11.80;61.30;;;;;;5071922;28;20703;-71
2023/03/26 12:56:16;;;;;;;2.05;1.10;;;11.80;61.90;;;;;;5072461;28;20229;-71
2023/03/26 12:58:59;;;;;;;1.98;1.00;;;11.70;61.30;;;;;;5072802;28;20185;-70
2023/03/26 13:01:38;;;;;;;1.77;0.95;;;11.60;61.90;;;;;;5072176;28;20719;-70
2023/03/26 13:04:34;;;;;;;1.60;0.70;;;11.70;61.50;;;;;;5072192;28;20197;-73
2023/03/26 13:07:12;;;;;;;2.25;0.90;;;11.70;60.30;;;;;;5074301;28;20277;-71
2023/03/26 13:10:02;;;;;;;1.95;0.70;;;11.80;60.30;;;;;;5076069;28;20200;-71
2023/03/26 13:12:39;;;;;;;1.70;0.90;;;11.80;59.40;;;;;;5075885;28;20643;-70
2023/03/26 13:15:28;;;;;;;1.75;0.90;;;11.80;59.60;;;;;;5076008;28;20597;-70
2023/03/26 13:18:11;;;;;;;1.60;0.80;;;11.70;59.80;;;;;;5075821;28;20289;-70
2023/03/26 13:20:52;;;;;;;2.95;0.90;;;11.60;60.30;;;;;;5075964;28;20563;-71
2023/03/26 13:23:33;;;;;;;2.20;1.10;;;11.50;59.80;;;;;;5075383;28;20322;-71
2023/03/26 13:26:09;;;;;;;5.35;3.08;;;11.50;60.70;;;;;;5075997;28;20190;-70
2023/03/26 13:28:46;;;;;;;5.47;2.85;;;11.40;61.40;;;;;;5075875;28;20190;-70
2023/03/26 13:31:20;;;;;;;8.60;4.45;;;11.40;61.10;;;;;;5075074;28;20177;-70
2023/03/26 13:33:57;;;;;;;3.42;1.63;;;11.30;61.80;;;;;;5075477;28;20690;-70